Time;durP1;ratioP1;P1;durP2;ratioP2;P2;SDS_P1;SDS_P2;PMS_P1;PMS_P2;Temp;Humidity;BMP_temperature;BMP_pressure;BME280_temperature;BME280_humidity;BME280_pressure;Samples;Min_cycle;Max_cycle;Signal;HPM_P1;HPM_P2
2022/09/24 00:01:38;;;;;;;29.80;18.10;;;;;;;5.27;68.99;100314.80;130393;1268;108911;-74
2022/09/24 00:04:44;;;;;;;31.00;17.80;;;;;;;5.23;68.91;100315.23;130430;1268;108720;-76
2022/09/24 00:07:49;;;;;;;28.80;17.20;;;;;;;5.21;68.92;100313.86;130265;1268;108695;-75
2022/09/24 00:10:55;;;;;;;29.40;18.70;;;;;;;5.19;69.06;100313.85;130328;1268;108720;-76
2022/09/24 00:14:01;;;;;;;30.00;18.10;;;;;;;5.15;68.91;100311.64;130443;1268;107815;-75
2022/09/24 00:17:07;;;;;;;31.80;17.80;;;;;;;5.10;68.92;100311.30;130444;1268;108714;-74
2022/09/24 00:20:12;;;;;;;32.30;18.20;;;;;;;5.07;69.08;100313.12;130313;1268;109020;-75
2022/09/24 00:23:17;;;;;;;31.70;16.50;;;;;;;5.07;69.20;100310.27;130398;1268;108892;-75
2022/09/24 00:29:46;;;;;;;30.40;17.40;;;;;;;5.07;69.00;100307.11;130353;1268;109220;-75
2022/09/24 00:32:51;;;;;;;31.00;17.50;;;;;;;5.06;69.00;100301.36;130277;1268;108659;-76
2022/09/24 00:36:03;;;;;;;30.00;18.40;;;;;;;5.05;68.92;100294.09;130295;1268;108653;-76
2022/09/24 00:39:09;;;;;;;30.10;17.50;;;;;;;5.03;68.92;100293.16;130368;1268;108695;-76
2022/09/24 00:42:14;;;;;;;32.90;19.50;;;;;;;4.99;68.96;100290.98;130377;1267;108617;-76
2022/09/24 00:45:20;;;;;;;31.50;18.10;;;;;;;4.93;68.82;100287.73;130377;1268;108790;-76
2022/09/24 00:48:26;;;;;;;32.40;18.10;;;;;;;4.89;69.07;100283.30;130273;1268;109064;-75
2022/09/24 00:51:33;;;;;;;31.50;18.20;;;;;;;4.85;68.98;100284.28;130403;1268;108641;-74
2022/09/24 00:54:42;;;;;;;31.10;18.40;;;;;;;4.78;68.95;100279.57;130421;1267;108961;-73
2022/09/24 00:57:49;;;;;;;32.50;17.90;;;;;;;4.67;68.97;100283.17;130325;1268;109584;-75
2022/09/24 01:00:58;;;;;;;31.80;18.70;;;;;;;4.59;68.93;100286.55;130354;1267;108183;-75
2022/09/24 01:04:06;;;;;;;32.80;18.90;;;;;;;4.53;68.97;100284.39;130374;1267;108508;-75
2022/09/24 01:07:11;;;;;;;31.40;17.90;;;;;;;4.49;69.07;100279.88;130298;1268;108901;-75
2022/09/24 01:10:46;;;;;;;31.60;17.50;;;;;;;4.47;69.05;100276.54;130375;1268;108726;-75
2022/09/24 01:14:05;;;;;;;28.30;17.50;;;;;;;4.43;69.10;100271.88;130363;1268;108894;-75
2022/09/24 01:17:20;;;;;;;29.80;17.30;;;;;;;4.41;69.00;100269.63;130426;1267;108651;-76
2022/09/24 01:20:45;;;;;;;30.40;17.80;;;;;;;4.36;68.98;100268.18;130312;1268;108707;-76
2022/09/24 01:24:13;;;;;;;30.80;17.50;;;;;;;4.31;69.00;100266.63;130429;1268;108878;-76
2022/09/24 01:27:24;;;;;;;29.10;16.40;;;;;;;4.26;69.01;100262.77;130364;1268;109106;-73
2022/09/24 01:30:32;;;;;;;26.90;16.30;;;;;;;4.22;69.09;100263.91;130372;1267;107612;-75
2022/09/24 01:33:38;;;;;;;23.00;13.70;;;;;;;4.20;68.96;100264.98;130491;1267;108850;-75
2022/09/24 01:36:45;;;;;;;28.40;15.80;;;;;;;4.21;69.01;100261.02;130222;1268;108528;-75
2022/09/24 01:39:53;;;;;;;26.80;15.90;;;;;;;4.23;69.01;100261.73;130400;1267;108864;-76
2022/09/24 01:43:02;;;;;;;27.10;16.10;;;;;;;4.26;69.07;100260.11;130389;1267;108953;-75
2022/09/24 01:46:09;;;;;;;28.70;17.40;;;;;;;4.25;68.88;100256.84;130336;1267;108744;-75
2022/09/24 01:49:14;;;;;;;28.00;17.20;;;;;;;4.24;69.01;100258.86;130478;1267;108876;-75
2022/09/24 01:52:26;;;;;;;30.10;17.00;;;;;;;4.24;68.96;100257.09;130387;1267;108807;-74
2022/09/24 01:55:37;;;;;;;30.20;17.10;;;;;;;4.23;68.91;100258.02;130396;1268;107838;-75
2022/09/24 01:58:50;;;;;;;27.10;16.60;;;;;;;4.17;69.08;100255.69;130229;1268;108677;-75
2022/09/24 02:02:07;;;;;;;28.50;16.80;;;;;;;4.07;68.97;100254.23;130386;1267;108792;-74
2022/09/24 02:05:18;;;;;;;25.60;16.80;;;;;;;4.04;69.25;100251.52;130380;1268;108659;-74
2022/09/24 02:08:26;;;;;;;29.90;17.60;;;;;;;4.02;69.23;100252.38;130470;1267;107770;-74
2022/09/24 02:11:35;;;;;;;27.50;16.80;;;;;;;3.99;69.18;100252.89;130281;1268;108644;-75
2022/09/24 02:14:45;;;;;;;28.10;16.80;;;;;;;3.97;69.33;100254.13;130308;1268;108947;-75
2022/09/24 02:17:56;;;;;;;28.90;17.40;;;;;;;3.95;69.21;100252.17;130410;1267;107747;-75
2022/09/24 02:21:06;;;;;;;27.40;16.90;;;;;;;3.94;69.28;100247.84;130307;1267;109707;-76
2022/09/24 02:24:16;;;;;;;26.60;16.40;;;;;;;3.90;69.24;100240.70;130333;1268;108629;-75
2022/09/24 02:27:26;;;;;;;28.60;16.70;;;;;;;3.88;69.50;100241.23;130421;1267;108792;-75
2022/09/24 02:30:41;;;;;;;27.00;16.40;;;;;;;3.85;69.38;100241.06;130307;1267;108148;-75
2022/09/24 02:37:15;;;;;;;28.50;16.40;;;;;;;3.82;69.59;100247.23;130278;1268;108651;-76
2022/09/24 02:40:21;;;;;;;25.90;16.50;;;;;;;3.85;69.57;100243.54;130292;1267;107440;-76
2022/09/24 02:43:26;;;;;;;21.00;13.30;;;;;;;3.89;69.62;100245.34;130342;1267;108795;-76
2022/09/24 02:46:32;;;;;;;24.20;14.80;;;;;;;3.95;69.73;100242.29;130376;1267;108680;-74
2022/09/24 02:49:37;;;;;;;24.90;15.50;;;;;;;4.02;69.58;100237.73;130339;1267;109162;-76
2022/09/24 02:52:43;;;;;;;26.30;16.00;;;;;;;4.06;69.68;100237.26;130368;1267;108668;-75
2022/09/24 02:55:48;;;;;;;25.10;16.30;;;;;;;4.09;69.62;100241.48;130576;1267;107717;-75
2022/09/24 02:58:54;;;;;;;23.90;15.40;;;;;;;4.10;69.60;100240.00;130371;1267;108933;-75
2022/09/24 03:01:59;;;;;;;26.00;15.70;;;;;;;4.09;69.60;100237.96;130289;1267;107556;-73
2022/09/24 03:05:05;;;;;;;27.50;16.10;;;;;;;4.06;69.69;100239.20;130400;1267;107284;-74
2022/09/24 03:08:11;;;;;;;25.40;15.30;;;;;;;4.03;69.72;100234.70;130351;1267;108876;-76
2022/09/24 03:11:16;;;;;;;25.50;15.50;;;;;;;4.02;69.71;100231.06;130330;1268;108831;-75
2022/09/24 03:14:21;;;;;;;25.40;15.10;;;;;;;4.01;69.70;100227.08;130299;1266;108964;-74
2022/09/24 03:17:27;;;;;;;26.80;15.70;;;;;;;3.98;69.79;100222.55;130448;1267;108948;-75
2022/09/24 03:20:33;;;;;;;25.20;15.00;;;;;;;3.94;69.82;100223.00;130380;1267;109676;-76
2022/09/24 03:23:39;;;;;;;24.80;15.40;;;;;;;3.90;69.78;100220.80;130347;1267;108850;-76
2022/09/24 03:26:45;;;;;;;23.00;14.50;;;;;;;3.86;69.73;100221.42;130324;1267;108932;-75
2022/09/24 03:33:13;;;;;;;21.20;13.60;;;;;;;3.79;69.95;100227.09;130446;1267;108779;-76
2022/09/24 03:36:21;;;;;;;23.70;14.60;;;;;;;3.77;69.90;100224.55;130364;1267;108156;-76
2022/09/24 03:39:26;;;;;;;23.00;13.20;;;;;;;3.77;70.05;100217.73;130414;1267;108671;-74
2022/09/24 03:42:33;;;;;;;20.30;12.00;;;;;;;3.80;70.13;100214.33;130315;1267;108878;-75
2022/09/24 03:45:38;;;;;;;21.90;13.20;;;;;;;3.84;70.08;100220.73;130371;1266;108669;-75
2022/09/24 03:48:46;;;;;;;21.20;13.70;;;;;;;3.90;70.16;100217.13;130402;1268;108662;-76
2022/09/24 03:51:51;;;;;;;21.20;13.40;;;;;;;3.94;70.06;100217.90;130388;1268;108609;-75
2022/09/24 03:54:57;;;;;;;22.30;13.80;;;;;;;3.92;70.05;100220.63;130346;1266;106956;-73
2022/09/24 03:58:02;;;;;;;24.40;14.10;;;;;;;3.93;70.20;100220.42;130395;1267;107249;-75
2022/09/24 04:01:10;;;;;;;22.40;14.00;;;;;;;3.96;70.24;100224.13;130358;1268;107716;-76
2022/09/24 04:04:16;;;;;;;19.80;13.80;;;;;;;3.99;70.37;100227.61;130391;1267;106654;-75
2022/09/24 04:07:21;;;;;;;23.40;14.50;;;;;;;3.99;70.27;100224.97;130370;1267;108856;-75
2022/09/24 04:10:27;;;;;;;22.70;15.00;;;;;;;3.99;70.28;100221.64;130375;1267;106905;-75
2022/09/24 04:13:33;;;;;;;23.60;15.10;;;;;;;3.97;70.33;100224.21;130324;1267;108031;-75
2022/09/24 04:16:38;;;;;;;22.60;14.50;;;;;;;3.96;70.50;100226.20;130415;1267;108744;-75
2022/09/24 04:19:44;;;;;;;20.70;14.10;;;;;;;3.97;70.73;100226.13;130453;1267;107407;-75
2022/09/24 04:22:50;;;;;;;24.80;15.00;;;;;;;3.96;70.56;100230.84;130448;1267;107210;-75
2022/09/24 04:25:55;;;;;;;22.40;14.60;;;;;;;3.91;70.55;100229.56;130483;1267;108744;-75
2022/09/24 04:29:01;;;;;;;20.30;13.80;;;;;;;3.91;70.67;100225.86;130401;1267;108883;-75
2022/09/24 04:32:06;;;;;;;25.20;14.40;;;;;;;3.91;70.76;100228.49;130453;1268;108938;-75
2022/09/24 04:35:12;;;;;;;22.30;12.80;;;;;;;3.94;70.77;100225.30;130335;1268;108702;-75
2022/09/24 04:38:20;;;;;;;20.30;13.00;;;;;;;4.01;70.85;100225.89;130238;1268;108460;-75
2022/09/24 04:41:25;;;;;;;22.30;14.00;;;;;;;4.07;70.72;100224.89;130511;1267;108801;-75
2022/09/24 04:44:31;;;;;;;21.40;13.80;;;;;;;4.11;70.86;100224.73;130518;1268;108759;-75
2022/09/24 04:47:39;;;;;;;22.00;14.00;;;;;;;4.15;70.89;100222.56;130391;1268;109005;-74
2022/09/24 04:50:45;;;;;;;22.60;13.80;;;;;;;4.18;70.82;100220.05;130459;1267;108893;-78
2022/09/24 04:53:50;;;;;;;22.20;14.50;;;;;;;4.21;70.75;100218.77;130543;1268;108899;-76
2022/09/24 04:56:55;;;;;;;20.50;13.70;;;;;;;4.23;70.92;100217.75;130593;1267;108791;-77
2022/09/24 05:00:01;;;;;;;20.80;13.70;;;;;;;4.23;70.92;100216.09;130523;1268;108701;-74
2022/09/24 05:03:06;;;;;;;21.90;14.00;;;;;;;4.23;70.97;100216.98;130524;1267;108481;-76
2022/09/24 05:06:12;;;;;;;22.40;13.70;;;;;;;4.25;71.01;100218.98;131415;1267;108616;-77
2022/09/24 05:09:17;;;;;;;22.00;14.90;;;;;;;4.27;71.05;100216.55;130600;1267;109252;-76
2022/09/24 05:12:23;;;;;;;20.80;13.80;;;;;;;4.33;71.29;100214.70;130587;1267;110184;-75
2022/09/24 05:15:28;;;;;;;20.90;14.00;;;;;;;4.41;71.41;100212.52;132230;1266;108842;-76
2022/09/24 05:18:35;;;;;;;20.70;13.50;;;;;;;4.50;71.32;100212.90;131392;1268;108690;-75
2022/09/24 05:21:40;;;;;;;19.60;12.50;;;;;;;4.65;71.53;100211.59;130469;1267;108730;-76
2022/09/24 05:24:46;;;;;;;19.00;12.80;;;;;;;4.81;71.53;100210.95;130486;1267;108657;-75
2022/09/24 05:27:53;;;;;;;21.30;13.30;;;;;;;4.99;71.82;100210.38;130495;1268;108913;-75
2022/09/24 05:31:00;;;;;;;20.70;13.50;;;;;;;5.19;71.76;100209.79;130407;1267;108645;-75
2022/09/24 05:34:06;;;;;;;20.20;13.60;;;;;;;5.37;71.85;100211.73;130395;1267;108733;-77
2022/09/24 05:37:13;;;;;;;19.30;14.10;;;;;;;5.52;71.99;100210.73;130498;1267;108688;-73
2022/09/24 05:43:42;;;;;;;17.60;12.90;;;;;;;5.79;72.30;100206.42;130549;1267;109625;-73
2022/09/24 05:46:47;;;;;;;22.20;13.80;;;;;;;5.91;72.56;100205.09;130484;1267;107028;-73
2022/09/24 05:49:53;;;;;;;18.90;13.30;;;;;;;6.00;72.59;100199.83;130383;1267;108601;-74
2022/09/24 05:52:58;;;;;;;21.30;13.60;;;;;;;6.07;72.82;100201.19;130541;1267;107622;-73
2022/09/24 05:56:04;;;;;;;18.60;12.30;;;;;;;6.13;72.83;100204.92;130456;1267;108858;-73
2022/09/24 05:59:10;;;;;;;19.90;12.40;;;;;;;6.20;73.01;100201.33;130395;1268;107784;-73
2022/09/24 06:02:15;;;;;;;18.40;12.40;;;;;;;6.33;73.26;100205.98;130518;1268;108734;-72
2022/09/24 06:05:20;;;;;;;19.40;12.80;;;;;;;6.43;73.04;100206.73;130350;1268;108700;-73
2022/09/24 06:08:26;;;;;;;18.50;13.30;;;;;;;6.54;73.20;100207.45;130421;1267;109003;-78
2022/09/24 06:11:36;;;;;;;19.20;12.60;;;;;;;6.63;73.44;100208.45;130546;1267;108685;-76
2022/09/24 06:14:42;;;;;;;18.50;13.10;;;;;;;6.71;73.19;100212.48;130737;1267;108621;-76
2022/09/24 06:17:47;;;;;;;18.30;12.80;;;;;;;6.79;73.64;100214.70;130582;1267;109321;-76
2022/09/24 06:20:53;;;;;;;18.70;13.20;;;;;;;6.87;73.87;100213.45;130418;1267;108435;-75
2022/09/24 06:23:59;;;;;;;20.80;13.10;;;;;;;6.98;74.09;100210.06;130439;1267;109492;-77
2022/09/24 06:27:04;;;;;;;17.90;12.40;;;;;;;7.13;74.38;100208.56;130567;1267;108723;-75
2022/09/24 06:30:11;;;;;;;17.10;12.40;;;;;;;7.32;74.42;100208.23;133024;1266;108675;-76
2022/09/24 06:33:17;;;;;;;16.40;12.60;;;;;;;7.57;74.89;100208.82;130872;1267;108651;-79
2022/09/24 06:36:22;;;;;;;17.10;13.20;;;;;;;7.85;75.30;100208.31;130426;1267;109042;-74
2022/09/24 06:39:27;;;;;;;17.50;12.90;;;;;;;8.11;75.22;100205.63;130408;1266;108905;-76
2022/09/24 06:42:33;;;;;;;18.30;12.30;;;;;;;8.39;75.60;100206.88;130418;1267;108881;-76
2022/09/24 06:45:38;;;;;;;15.30;12.10;;;;;;;8.63;75.74;100209.60;130246;1268;106954;-76
2022/09/24 06:48:43;;;;;;;12.60;9.70;;;;;;;8.86;75.92;100204.14;130231;1267;109140;-74
2022/09/24 06:51:49;;;;;;;13.60;9.00;;;;;;;9.05;75.73;100203.27;130338;1266;108884;-77
2022/09/24 06:54:55;;;;;;;13.40;9.90;;;;;;;9.24;75.93;100200.61;131420;1267;109612;-76
2022/09/24 06:58:06;;;;;;;12.80;9.80;;;;;;;9.44;76.15;100200.42;130515;1267;108664;-77
2022/09/24 07:01:11;;;;;;;17.90;14.50;;;;;;;9.65;75.80;100199.84;130339;1267;108755;-74
2022/09/24 07:04:17;;;;;;;13.10;10.80;;;;;;;9.82;75.46;100197.65;130461;1267;108781;-76
2022/09/24 07:07:32;;;;;;;11.00;8.30;;;;;;;9.97;75.94;100199.13;130302;1267;107399;-76
2022/09/24 07:10:38;;;;;;;10.90;8.60;;;;;;;10.13;75.89;100199.65;130391;1267;108505;-78
2022/09/24 07:13:43;;;;;;;10.10;8.10;;;;;;;10.24;75.37;100199.40;130444;1267;108567;-77
2022/09/24 07:16:51;;;;;;;9.10;6.90;;;;;;;10.38;75.60;100198.95;130395;1267;108706;-78
2022/09/24 07:19:56;;;;;;;6.30;4.90;;;;;;;10.53;75.12;100199.05;130362;1267;108861;-78
2022/09/24 07:23:02;;;;;;;6.10;4.90;;;;;;;10.70;75.05;100198.95;130509;1267;109187;-78
2022/09/24 07:26:07;;;;;;;5.90;4.50;;;;;;;10.85;74.67;100201.52;130472;1267;108766;-79
2022/09/24 07:29:13;;;;;;;8.20;7.30;;;;;;;11.04;74.76;100204.42;130379;1267;108777;-80
2022/09/24 08:11:32;;;;;;;4.50;3.50;;;;;;;12.49;71.90;100215.90;126337;1310;636086;-77
2022/09/24 08:14:37;;;;;;;5.80;3.40;;;;;;;12.51;71.73;100222.16;130147;1271;106863;-78
2022/09/24 08:20:38;;;;;;;3.80;3.00;;;;;;;12.63;71.47;100224.08;126042;1310;636376;-74
2022/09/24 08:23:44;;;;;;;3.70;3.00;;;;;;;12.70;71.54;100223.96;129467;1281;108825;-76
2022/09/24 08:26:50;;;;;;;3.50;2.80;;;;;;;12.79;71.61;100223.33;129501;1281;108996;-75
2022/09/24 08:29:56;;;;;;;3.00;2.60;;;;;;;12.86;71.80;100223.16;129241;1281;108710;-75
2022/09/24 08:33:04;;;;;;;3.70;2.60;;;;;;;12.90;71.33;100220.17;129225;1278;195995;-75
2022/09/24 08:36:11;;;;;;;3.00;2.50;;;;;;;12.93;70.98;100218.84;129594;1277;108775;-74
2022/09/24 08:39:16;;;;;;;3.30;2.90;;;;;;;12.96;71.06;100217.19;129674;1277;109014;-76
2022/09/24 08:42:35;;;;;;;3.20;2.90;;;;;;;13.01;70.91;100223.44;129507;1277;108694;-74
2022/09/24 08:49:16;;;;;;;3.60;3.00;;;;;;;13.12;70.85;100218.30;129656;1277;108849;-74
2022/09/24 08:52:34;;;;;;;4.40;3.60;;;;;;;13.18;70.58;100218.92;129506;1277;108765;-73
2022/09/24 08:55:46;;;;;;;3.80;3.10;;;;;;;13.25;70.45;100221.16;129458;1276;108751;-74
2022/09/24 08:58:57;;;;;;;3.60;2.80;;;;;;;13.30;70.51;100223.43;129496;1277;108746;-75
2022/09/24 09:02:16;;;;;;;4.30;2.80;;;;;;;13.36;70.44;100220.33;129416;1277;108756;-74
2022/09/24 09:05:30;;;;;;;3.50;2.90;;;;;;;13.41;70.09;100216.58;129510;1277;108946;-74
2022/09/24 09:08:44;;;;;;;2.80;2.50;;;;;;;13.43;69.63;100219.92;129556;1277;108507;-74
2022/09/24 09:11:52;;;;;;;3.30;3.00;;;;;;;13.44;69.63;100215.54;129591;1277;108731;-76
2022/09/24 09:15:02;;;;;;;3.60;2.50;;;;;;;13.48;69.53;100213.38;129437;1277;108757;-74
2022/09/24 09:18:16;;;;;;;3.80;2.80;;;;;;;13.55;69.13;100208.02;129563;1277;108782;-74
2022/09/24 09:21:31;;;;;;;4.80;2.90;;;;;;;13.64;69.04;100208.39;129566;1277;108856;-73
2022/09/24 09:24:45;;;;;;;3.80;2.50;;;;;;;13.76;69.17;100212.02;129568;1277;108724;-73
2022/09/24 09:27:59;;;;;;;3.60;3.20;;;;;;;13.90;69.17;100212.23;129671;1277;108667;-79
2022/09/24 09:31:17;;;;;;;4.80;3.60;;;;;;;14.06;69.13;100202.37;129517;1277;108659;-79
2022/09/24 09:34:39;;;;;;;3.60;3.20;;;;;;;14.20;68.46;100206.33;129682;1277;108079;-80
2022/09/24 09:37:52;;;;;;;3.60;2.90;;;;;;;14.37;68.16;100205.63;129660;1277;108979;-73
2022/09/24 09:41:16;;;;;;;3.20;2.90;;;;;;;14.54;67.93;100199.20;129661;1277;108868;-74
2022/09/24 09:44:26;;;;;;;5.70;4.30;;;;;;;14.72;67.56;100193.45;129622;1277;108126;-73
2022/09/24 09:47:40;;;;;;;7.30;4.70;;;;;;;14.88;67.48;100190.98;129493;1277;108704;-74
2022/09/24 09:50:48;;;;;;;9.60;6.10;;;;;;;15.10;67.34;100193.09;129474;1277;108873;-75
2022/09/24 09:53:59;;;;;;;9.00;6.20;;;;;;;15.29;67.02;100188.05;129772;1277;108730;-76
2022/09/24 09:57:06;;;;;;;5.60;3.80;;;;;;;15.49;66.68;100188.16;129434;1277;109017;-74
2022/09/24 10:00:26;;;;;;;3.10;2.60;;;;;;;15.66;66.36;100193.06;129362;1277;108679;-76
2022/09/24 10:03:34;;;;;;;2.60;2.30;;;;;;;15.81;65.71;100189.34;129589;1277;108588;-79
2022/09/24 10:06:39;;;;;;;3.10;2.50;;;;;;;15.93;65.62;100192.91;129523;1277;108935;-77
2022/09/24 10:09:46;;;;;;;3.20;2.30;;;;;;;16.02;65.46;100186.05;129620;1277;107080;-75
2022/09/24 10:12:54;;;;;;;2.60;2.00;;;;;;;16.13;65.19;100188.25;129800;1277;108696;-74
2022/09/24 10:16:03;;;;;;;2.60;2.20;;;;;;;16.20;64.47;100185.80;129718;1277;108237;-75
2022/09/24 10:19:19;;;;;;;2.90;2.30;;;;;;;16.26;64.23;100187.13;129728;1277;108832;-79
2022/09/24 10:22:27;;;;;;;3.30;2.50;;;;;;;16.30;63.47;100186.17;129584;1277;108988;-77
2022/09/24 10:25:35;;;;;;;2.80;2.30;;;;;;;16.32;63.76;100183.38;129652;1277;109018;-78
2022/09/24 10:32:22;;;;;;;3.70;2.80;;;;;;;16.41;62.89;100185.79;129525;1277;108878;-77
2022/09/24 10:35:34;;;;;;;4.80;3.70;;;;;;;16.45;62.53;100184.45;130358;1271;108719;-76
2022/09/24 10:38:40;;;;;;;5.00;3.30;;;;;;;16.48;62.36;100178.31;130388;1271;107693;-76
2022/09/24 10:41:50;;;;;;;6.70;3.40;;;;;;;16.51;62.01;100176.05;130442;1271;108691;-78
2022/09/24 10:45:01;;;;;;;3.70;2.90;;;;;;;16.53;62.04;100171.42;130424;1271;108760;-75
2022/09/24 10:48:15;;;;;;;4.50;3.40;;;;;;;16.55;62.01;100172.77;130417;1271;108729;-75
2022/09/24 10:51:34;;;;;;;4.80;3.30;;;;;;;16.61;61.36;100168.42;130567;1271;108833;-79
2022/09/24 10:54:53;;;;;;;3.80;2.60;;;;;;;16.64;61.12;100163.02;130411;1271;108740;-74
2022/09/24 10:58:10;;;;;;;3.70;2.80;;;;;;;16.65;60.38;100164.00;130592;1270;108801;-74
2022/09/24 11:01:23;;;;;;;3.20;2.40;;;;;;;16.64;60.31;100167.47;130744;1271;106924;-75
2022/09/24 11:04:44;;;;;;;2.70;2.30;;;;;;;16.65;60.36;100161.34;130632;1271;108881;-74
2022/09/24 11:08:04;;;;;;;3.30;2.70;;;;;;;16.64;60.03;100166.02;130530;1271;108569;-75
2022/09/24 11:11:22;;;;;;;6.90;6.20;;;;;;;16.65;60.15;100162.88;130399;1270;107630;-74
2022/09/24 11:14:43;;;;;;;7.10;3.70;;;;;;;16.67;59.98;100159.95;130238;1270;108667;-75
2022/09/24 11:18:01;;;;;;;5.80;3.90;;;;;;;16.70;59.61;100156.70;130260;1271;108926;-76
2022/09/24 11:21:20;;;;;;;8.50;7.20;;;;;;;16.74;59.39;100149.09;130296;1271;108733;-75
2022/09/24 11:24:48;;;;;;;6.10;5.50;;;;;;;16.75;58.89;100146.98;130290;1271;108925;-73
2022/09/24 11:28:03;;;;;;;7.00;5.80;;;;;;;16.78;58.68;100148.79;130210;1270;108670;-74
2022/09/24 11:31:19;;;;;;;4.60;3.70;;;;;;;16.85;58.52;100143.98;130326;1271;108974;-74
2022/09/24 11:34:50;;;;;;;5.00;3.70;;;;;;;16.92;57.72;100142.79;130254;1271;108415;-73
2022/09/24 11:38:06;;;;;;;4.00;3.00;;;;;;;17.01;58.21;100146.08;130319;1271;109055;-74
2022/09/24 11:41:26;;;;;;;3.90;3.00;;;;;;;17.04;57.81;100146.59;130160;1270;108780;-74
2022/09/24 11:44:53;;;;;;;4.80;3.00;;;;;;;17.07;58.08;100146.94;130408;1271;109572;-75
2022/09/24 11:48:14;;;;;;;3.90;2.80;;;;;;;17.14;57.88;100142.33;130320;1270;108491;-83
2022/09/24 11:51:31;;;;;;;2.70;2.40;;;;;;;17.16;57.11;100138.73;131104;1265;108494;-80
2022/09/24 11:54:40;;;;;;;2.80;2.50;;;;;;;17.21;57.31;100140.41;131142;1265;108899;-72
2022/09/24 11:57:51;;;;;;;2.30;2.10;;;;;;;17.28;57.24;100138.26;130851;1265;108686;-73
2022/09/24 12:01:03;;;;;;;3.00;2.00;;;;;;;17.34;56.46;100138.24;130537;1267;108656;-72
2022/09/24 12:04:15;;;;;;;2.40;1.80;;;;;;;17.36;56.25;100141.66;130581;1268;108660;-72
2022/09/24 12:07:27;;;;;;;2.40;2.00;;;;;;;17.38;56.25;100141.38;130492;1265;108546;-72
2022/09/24 12:10:35;;;;;;;;;;;;;;;17.41;56.22;100134.79;130825;1265;107665;-73
2022/09/24 12:13:45;;;;;;;2.60;1.80;;;;;;;17.45;55.53;100133.02;130629;1265;108698;-71
2022/09/24 12:16:58;;;;;;;2.70;2.20;;;;;;;17.51;55.96;100132.30;130640;1265;108867;-72
2022/09/24 12:20:13;;;;;;;2.60;1.90;;;;;;;17.56;55.68;100127.85;130585;1264;109662;-74
2022/09/24 12:23:26;;;;;;;2.80;2.10;;;;;;;17.55;55.08;100129.39;130536;1265;108871;-73
2022/09/24 12:26:35;;;;;;;3.60;2.00;;;;;;;17.54;54.97;100129.04;130922;1265;109166;-73
2022/09/24 12:33:19;;;;;;;4.00;2.80;;;;;;;17.55;54.94;100124.23;131010;1267;108919;-75
2022/09/24 12:36:49;;;;;;;2.60;2.10;;;;;;;17.56;54.68;100124.11;130930;1265;108826;-76
2022/09/24 12:40:02;;;;;;;4.10;2.10;;;;;;;17.61;54.46;100117.45;130818;1265;107075;-76
2022/09/24 12:43:24;;;;;;;2.50;1.90;;;;;;;17.67;54.72;100115.63;130811;1265;109081;-75
2022/09/24 12:46:34;;;;;;;2.00;1.80;;;;;;;17.74;53.96;100117.77;130582;1265;107443;-72
2022/09/24 12:49:40;;;;;;;2.30;2.00;;;;;;;17.76;53.64;100117.14;130702;1265;109681;-73
2022/09/24 12:52:45;;;;;;;2.20;2.00;;;;;;;17.76;53.39;100115.07;130551;1265;108744;-71
2022/09/24 12:55:52;;;;;;;2.60;1.80;;;;;;;17.76;53.36;100113.45;130595;1265;108774;-72
2022/09/24 12:58:58;;;;;;;3.80;1.80;;;;;;;17.78;53.22;100114.59;131792;1265;108634;-72
2022/09/24 13:02:17;;;;;;;2.10;1.70;;;;;;;17.79;53.14;100107.65;130700;1265;109019;-74
2022/09/24 13:05:33;;;;;;;1.80;1.60;;;;;;;17.80;53.33;100108.70;130609;1265;108897;-72
2022/09/24 13:08:40;;;;;;;2.40;1.80;;;;;;;17.79;53.60;100109.35;131142;1265;108704;-71
2022/09/24 13:11:46;;;;;;;2.90;2.00;;;;;;;17.78;53.51;100109.81;130706;1268;108687;-74
2022/09/24 13:14:56;;;;;;;2.30;2.10;;;;;;;17.76;53.38;100108.98;130710;1265;108597;-72
2022/09/24 13:18:18;;;;;;;3.00;2.20;;;;;;;17.75;53.26;100113.45;130611;1266;108690;-71
2022/09/24 13:21:27;;;;;;;2.50;1.90;;;;;;;17.72;52.93;100109.80;130867;1265;108747;-71
2022/09/24 13:24:45;;;;;;;2.50;2.00;;;;;;;17.73;52.90;100109.01;130838;1265;106961;-71
2022/09/24 13:28:03;;;;;;;1.90;1.80;;;;;;;17.78;52.70;100105.90;130830;1267;108627;-71
2022/09/24 13:31:22;;;;;;;2.10;1.90;;;;;;;17.84;52.74;100102.16;130771;1265;108745;-72
2022/09/24 13:34:30;;;;;;;2.10;1.90;;;;;;;17.88;52.24;100100.98;130660;1265;108636;-71
2022/09/24 13:37:41;;;;;;;2.50;2.10;;;;;;;17.85;52.37;100095.77;130770;1265;108805;-72
2022/09/24 13:40:55;;;;;;;2.80;2.20;;;;;;;17.83;52.39;100093.72;130761;1265;109071;-72
2022/09/24 13:44:06;;;;;;;3.10;2.20;;;;;;;17.75;52.33;100096.27;130982;1265;108870;-72
2022/09/24 13:47:22;;;;;;;2.70;2.30;;;;;;;17.63;51.74;100090.71;130783;1265;108662;-73
2022/09/24 13:50:31;;;;;;;2.50;2.10;;;;;;;17.55;52.18;100089.95;130702;1265;108675;-73
2022/09/24 13:53:40;;;;;;;2.50;2.10;;;;;;;17.44;52.20;100094.55;130747;1265;108727;-73
2022/09/24 13:56:59;;;;;;;2.90;2.40;;;;;;;17.32;52.44;100087.90;130664;1265;108487;-74
2022/09/24 14:00:16;;;;;;;2.70;2.20;;;;;;;17.26;51.79;100082.99;130818;1265;108333;-74
2022/09/24 14:03:25;;;;;;;5.50;4.60;;;;;;;17.19;51.93;100080.48;130789;1265;108765;-72
2022/09/24 14:06:37;;;;;;;6.80;5.20;;;;;;;17.15;51.88;100078.13;130779;1267;108692;-70
2022/09/24 14:09:46;;;;;;;4.80;3.90;;;;;;;17.06;51.99;100075.77;130916;1265;108306;-72
2022/09/24 14:13:02;;;;;;;4.40;4.00;;;;;;;16.97;52.05;100075.31;130862;1268;107648;-72
2022/09/24 14:16:14;;;;;;;5.80;4.20;;;;;;;16.87;52.14;100074.12;130793;1265;108400;-73
2022/09/24 14:19:19;;;;;;;3.40;3.10;;;;;;;16.75;52.33;100075.81;130792;1265;108677;-71
2022/09/24 14:22:27;;;;;;;3.00;2.60;;;;;;;16.61;52.13;100076.55;130950;1265;108440;-71
2022/09/24 14:25:36;;;;;;;3.50;2.60;;;;;;;16.44;52.09;100074.36;130624;1266;108625;-71
2022/09/24 14:28:42;;;;;;;3.30;2.90;;;;;;;16.29;52.15;100070.15;130899;1265;108616;-71
2022/09/24 14:31:51;;;;;;;3.50;3.10;;;;;;;16.16;52.14;100068.05;130560;1266;108748;-71
2022/09/24 14:34:59;;;;;;;3.40;3.00;;;;;;;16.03;52.26;100069.23;130571;1265;108852;-72
2022/09/24 14:38:08;;;;;;;4.20;3.80;;;;;;;15.90;52.40;100067.98;130758;1265;108627;-71
2022/09/24 14:41:19;;;;;;;4.60;3.90;;;;;;;15.76;52.52;100066.35;130850;1265;108726;-73
2022/09/24 14:44:29;;;;;;;4.30;3.70;;;;;;;15.67;52.48;100067.77;130733;1265;110161;-71
2022/09/24 14:47:36;;;;;;;5.10;3.60;;;;;;;15.62;52.55;100063.46;131032;1265;108845;-70
2022/09/24 14:50:42;;;;;;;4.10;3.40;;;;;;;15.59;52.80;100064.70;130932;1265;108629;-71
2022/09/24 14:53:59;;;;;;;3.60;3.10;;;;;;;15.57;53.21;100067.25;130729;1265;108678;-72
2022/09/24 14:57:25;;;;;;;5.10;3.80;;;;;;;15.57;53.58;100064.83;130813;1265;107707;-73
2022/09/24 15:00:36;;;;;;;4.20;3.70;;;;;;;15.53;53.74;100064.19;130884;1265;108727;-71
2022/09/24 15:03:44;;;;;;;5.40;4.30;;;;;;;15.49;53.73;100066.13;130541;1267;108902;-72
2022/09/24 15:06:50;;;;;;;7.50;5.30;;;;;;;15.43;53.70;100061.80;130741;1265;108702;-77
2022/09/24 15:09:58;;;;;;;6.90;5.60;;;;;;;15.37;53.95;100060.58;130651;1265;108091;-75
2022/09/24 15:13:14;;;;;;;7.40;5.70;;;;;;;15.33;54.03;100054.65;130701;1264;108966;-72
2022/09/24 15:16:28;;;;;;;9.40;7.70;;;;;;;15.26;53.97;100054.70;130628;1265;108546;-73
2022/09/24 15:19:35;;;;;;;9.50;7.80;;;;;;;15.22;54.19;100055.67;130762;1265;108494;-73
2022/09/24 15:22:40;;;;;;;10.40;7.30;;;;;;;15.16;54.42;100053.30;130665;1265;108761;-71
2022/09/24 15:25:46;;;;;;;9.00;7.20;;;;;;;15.08;54.58;100057.20;130596;1265;108577;-74